Terminal Aerodrome Forecast
Issued by NWS Indianapolis, IN

Home | Current Version | Previous Version | Text Only | Print | Product List | Glossary On
Versions: 1 2 3 4 5 6 7 8 9 10 11 12 13 14 15 16 17 18 19 20 21 22 23 24 25 26 27 28 29
561
FTUS43 KIND 111407 AAC
TAFIND
TAF AMD
KIND 111407Z 1114/1218 14012KT P6SM OVC035
     FM111500 15011KT P6SM VCSH OVC030
     FM111800 17008KT 6SM -SNRA OVC035
     FM112300 18009KT 3SM -RA OVC010
     FM120100 22008KT 3SM RASNPL OVC003
     FM120600 23008KT P6SM OVC003
     FM120900 26007KT P6SM BKN008=

USA.gov is the U.S. government's official web portal to all federal, state and local government web resources and services.